createdAt,value
2022-11-06T00:01:48.313Z,7.50
2022-11-06T00:04:16.220Z,7.40
2022-11-06T00:06:49.004Z,7.40
2022-11-06T00:09:19.005Z,7.40
2022-11-06T00:11:47.780Z,7.30
2022-11-06T00:14:16.241Z,7.30
2022-11-06T00:16:46.626Z,7.30
2022-11-06T00:19:15.314Z,7.40
2022-11-06T00:21:43.218Z,7.40
2022-11-06T00:24:13.545Z,7.30
2022-11-06T00:26:41.416Z,7.30
2022-11-06T00:29:12.823Z,7.30
2022-11-06T00:31:40.763Z,7.30
2022-11-06T00:34:10.940Z,7.20
2022-11-06T00:36:38.957Z,7.20
2022-11-06T00:39:07.092Z,7.20
2022-11-06T00:41:34.940Z,7.10
2022-11-06T00:44:04.279Z,7.20
2022-11-06T00:46:32.385Z,7.20
2022-11-06T00:49:00.261Z,7.20
2022-11-06T00:51:31.571Z,7.20
2022-11-06T00:54:01.672Z,7.20
2022-11-06T00:56:30.367Z,7.20
2022-11-06T00:59:01.171Z,7.10
2022-11-06T01:01:30.962Z,7.10
2022-11-06T01:04:00.775Z,7.10
2022-11-06T01:06:31.513Z,7.10
2022-11-06T01:08:59.908Z,7.00
2022-11-06T01:11:46.556Z,7.00
2022-11-06T01:14:19.955Z,6.90
2022-11-06T01:16:48.171Z,6.90
2022-11-06T01:19:17.747Z,6.90
2022-11-06T01:21:48.745Z,6.90
2022-11-06T01:24:18.715Z,6.90
2022-11-06T01:27:12.144Z,6.90
2022-11-06T01:29:34.964Z,6.90
2022-11-06T01:32:03.040Z,6.80
2022-11-06T01:34:31.144Z,6.90
2022-11-06T01:37:00.365Z,6.90
2022-11-06T01:39:28.361Z,6.90
2022-11-06T01:41:56.337Z,6.90
2022-11-06T01:45:06.256Z,6.80
2022-11-06T01:47:34.107Z,6.80
2022-11-06T01:50:05.623Z,6.80
2022-11-06T01:52:35.679Z,6.80
2022-11-06T01:55:08.231Z,6.90
2022-11-06T01:57:36.192Z,6.90
2022-11-06T02:00:06.590Z,6.90
2022-11-06T02:02:34.970Z,6.80
2022-11-06T02:05:03.128Z,6.80
2022-11-06T02:07:31.302Z,6.70
2022-11-06T02:10:00.468Z,6.80
2022-11-06T02:12:40.558Z,6.70
2022-11-06T02:15:16.494Z,6.60
2022-11-06T02:18:01.199Z,6.60
2022-11-06T02:20:36.688Z,6.50
2022-11-06T02:23:23.727Z,6.40
2022-11-06T02:26:01.713Z,6.40
2022-11-06T02:28:36.196Z,6.40
2022-11-06T02:31:10.987Z,6.40
2022-11-06T02:33:44.769Z,6.40
2022-11-06T02:36:18.224Z,6.50
2022-11-06T02:38:51.215Z,6.50
2022-11-06T02:41:23.015Z,6.50
2022-11-06T02:43:55.159Z,6.50
2022-11-06T02:46:28.342Z,6.60
2022-11-06T02:49:01.036Z,6.60
2022-11-06T02:51:32.922Z,6.60
2022-11-06T02:54:03.582Z,6.60
2022-11-06T02:56:37.288Z,6.60
2022-11-06T02:59:11.037Z,6.60
2022-11-06T03:01:43.628Z,6.50
2022-11-06T03:04:16.428Z,6.50
2022-11-06T03:06:50.019Z,6.50
2022-11-06T03:09:21.756Z,6.40
2022-11-06T03:11:58.421Z,6.30
2022-11-06T03:14:32.444Z,6.30
2022-11-06T03:17:02.187Z,6.30
2022-11-06T03:19:33.316Z,6.30
2022-11-06T03:22:09.586Z,6.30
2022-11-06T03:24:45.126Z,6.30
2022-11-06T03:27:19.373Z,6.30
2022-11-06T03:29:53.044Z,6.30
2022-11-06T03:32:27.690Z,6.30
2022-11-06T03:35:05.704Z,6.20
2022-11-06T03:37:39.209Z,6.20
2022-11-06T03:40:13.030Z,6.10
2022-11-06T03:42:42.491Z,6.00
2022-11-06T03:45:15.603Z,6.00
2022-11-06T03:47:47.732Z,6.00
2022-11-06T03:50:19.184Z,5.90
2022-11-06T03:52:54.064Z,5.90
2022-11-06T03:55:25.860Z,5.90
2022-11-06T03:57:58.099Z,5.80
2022-11-06T04:00:27.310Z,5.80
2022-11-06T04:03:04.769Z,5.80
2022-11-06T04:05:38.134Z,5.80
2022-11-06T04:08:26.508Z,5.80
2022-11-06T04:11:15.938Z,5.80
2022-11-06T04:14:01.791Z,5.80
2022-11-06T04:16:35.944Z,5.80
2022-11-06T04:19:04.534Z,5.80
2022-11-06T04:21:44.345Z,5.80
2022-11-06T04:24:42.702Z,5.80
2022-11-06T04:27:24.564Z,5.80
2022-11-06T04:30:06.528Z,5.80
2022-11-06T04:32:48.613Z,5.80
2022-11-06T04:35:23.867Z,5.80
2022-11-06T04:37:59.782Z,5.80
2022-11-06T04:40:34.929Z,5.80
2022-11-06T04:43:07.230Z,5.80
2022-11-06T04:45:40.024Z,5.80
2022-11-06T04:48:11.327Z,5.80
2022-11-06T04:50:43.152Z,5.70
2022-11-06T04:53:12.461Z,5.80
2022-11-06T04:55:46.714Z,5.80
2022-11-06T04:58:15.273Z,5.90
2022-11-06T05:00:47.023Z,5.90
2022-11-06T05:03:17.000Z,5.90
2022-11-06T05:05:45.143Z,5.90
2022-11-06T05:08:16.398Z,5.80
2022-11-06T05:10:45.092Z,5.70
2022-11-06T05:13:13.484Z,5.70
2022-11-06T05:15:41.663Z,5.70
2022-11-06T05:18:09.940Z,5.70
2022-11-06T05:20:39.249Z,5.60
2022-11-06T05:23:06.120Z,5.60
2022-11-06T05:25:36.409Z,5.60
2022-11-06T05:28:06.940Z,5.60
2022-11-06T05:30:36.614Z,5.60
2022-11-06T05:33:04.508Z,5.60
2022-11-06T05:35:32.453Z,5.60
2022-11-06T05:38:02.377Z,5.60
2022-11-06T05:40:30.598Z,5.60
2022-11-06T05:42:58.415Z,5.60
2022-11-06T05:45:26.281Z,5.60
2022-11-06T05:47:54.146Z,5.60
2022-11-06T05:50:22.191Z,5.60
2022-11-06T05:52:50.061Z,5.60
2022-11-06T05:55:19.640Z,5.60
2022-11-06T05:57:47.509Z,5.50
2022-11-06T06:00:16.044Z,5.50
2022-11-06T06:02:44.307Z,5.40
2022-11-06T06:05:12.298Z,5.40
2022-11-06T06:07:40.139Z,5.40
2022-11-06T06:10:09.176Z,5.40
2022-11-06T06:12:39.529Z,5.40
2022-11-06T06:15:08.018Z,5.50
2022-11-06T06:17:36.393Z,5.50
2022-11-06T06:20:04.386Z,5.50
2022-11-06T06:22:32.199Z,5.50
2022-11-06T06:25:00.111Z,5.50
2022-11-06T06:27:28.327Z,5.50
2022-11-06T06:29:57.501Z,5.50
2022-11-06T06:32:25.316Z,5.40
2022-11-06T06:34:53.146Z,5.50
2022-11-06T06:37:20.984Z,5.50
2022-11-06T06:39:48.840Z,5.50
2022-11-06T06:42:16.655Z,5.50
2022-11-06T06:44:44.509Z,5.50
2022-11-06T06:47:16.766Z,5.40
2022-11-06T06:49:44.692Z,5.40
2022-11-06T06:52:12.947Z,5.40
2022-11-06T06:54:41.003Z,5.40
2022-11-06T06:57:09.794Z,5.40
2022-11-06T06:59:37.723Z,5.50
2022-11-06T07:02:05.662Z,5.50
2022-11-06T07:04:34.935Z,5.60
2022-11-06T07:07:02.762Z,5.50
2022-11-06T07:09:32.125Z,5.60
2022-11-06T07:12:00.257Z,5.60
2022-11-06T07:14:28.099Z,5.60
2022-11-06T07:16:55.989Z,5.60
2022-11-06T07:19:23.895Z,5.70
2022-11-06T07:21:53.876Z,5.70
2022-11-06T07:24:21.730Z,5.70
2022-11-06T07:26:49.852Z,5.80
2022-11-06T07:29:17.727Z,5.90
2022-11-06T07:31:45.606Z,5.90
2022-11-06T07:34:13.713Z,6.00
2022-11-06T07:36:41.556Z,6.10
2022-11-06T07:39:10.747Z,6.10
2022-11-06T07:41:38.761Z,6.10
2022-11-06T07:44:06.707Z,6.20
2022-11-06T07:46:34.732Z,6.20
2022-11-06T07:49:02.713Z,6.20
2022-11-06T07:51:30.813Z,6.30
2022-11-06T07:53:58.685Z,6.30
2022-11-06T07:56:27.874Z,6.30
2022-11-06T07:58:55.923Z,6.30
2022-11-06T08:01:23.897Z,6.40
2022-11-06T08:03:51.862Z,6.50
2022-11-06T08:06:19.730Z,6.40
2022-11-06T08:08:47.631Z,6.50
2022-11-06T08:11:15.839Z,6.50
2022-11-06T08:13:45.114Z,6.60
2022-11-06T08:16:15.164Z,6.70
2022-11-06T08:18:43.097Z,6.90
2022-11-06T08:21:10.983Z,7.00
2022-11-06T08:23:39.069Z,7.10
2022-11-06T08:26:07.646Z,7.30
2022-11-06T08:28:35.929Z,7.40
2022-11-06T08:31:08.872Z,7.60
2022-11-06T08:33:38.626Z,7.70
2022-11-06T08:36:08.572Z,7.80
2022-11-06T08:38:37.336Z,7.90
2022-11-06T08:41:06.491Z,7.90
2022-11-06T08:43:34.366Z,7.90
2022-11-06T08:46:02.513Z,7.90
2022-11-06T08:48:34.081Z,8.00
2022-11-06T08:51:02.176Z,8.00
2022-11-06T08:53:30.144Z,8.00
2022-11-06T08:55:57.986Z,8.10
2022-11-06T08:58:25.827Z,8.20
2022-11-06T09:00:53.778Z,8.30
2022-11-06T09:03:21.709Z,8.40
2022-11-06T09:05:50.966Z,8.60
2022-11-06T09:08:18.852Z,8.90
2022-11-06T09:10:47.169Z,9.30
2022-11-06T09:13:15.521Z,10.00
2022-11-06T09:15:43.567Z,11.10
2022-11-06T09:18:12.415Z,12.30
2022-11-06T09:20:40.257Z,13.70
2022-11-06T09:23:10.635Z,14.70
2022-11-06T09:25:38.744Z,15.60
2022-11-06T09:28:06.630Z,16.60
2022-11-06T09:30:34.505Z,17.60
2022-11-06T09:33:03.714Z,18.50
2022-11-06T09:35:33.178Z,19.60
2022-11-06T09:38:04.346Z,20.10
2022-11-06T09:40:36.421Z,20.10
2022-11-06T09:43:58.141Z,20.00
2022-11-06T09:46:22.920Z,19.10
2022-11-06T09:48:57.251Z,17.40
2022-11-06T09:51:33.013Z,16.30
2022-11-06T09:54:06.753Z,15.50
2022-11-06T09:56:39.210Z,15.40
2022-11-06T09:59:13.347Z,16.00
2022-11-06T10:01:44.941Z,16.50
2022-11-06T10:04:25.059Z,17.00
2022-11-06T10:06:53.801Z,17.60
2022-11-06T10:09:21.697Z,18.10
2022-11-06T10:12:01.936Z,18.40
2022-11-06T10:14:43.935Z,18.90
2022-11-06T10:17:21.833Z,19.40
2022-11-06T10:19:56.363Z,19.80
2022-11-06T10:22:32.079Z,20.20
2022-11-06T10:25:07.096Z,20.70
2022-11-06T10:27:41.754Z,20.90
2022-11-06T10:30:12.899Z,21.30
2022-11-06T10:32:59.000Z,21.70
2022-11-06T10:35:31.914Z,22.20
2022-11-06T10:38:06.358Z,22.60
2022-11-06T10:40:35.501Z,22.90
2022-11-06T10:43:13.213Z,23.20
2022-11-06T10:45:43.581Z,23.70
2022-11-06T10:48:28.913Z,24.20
2022-11-06T10:51:16.464Z,24.50
2022-11-06T10:53:57.156Z,24.70
2022-11-06T10:56:40.832Z,24.70
2022-11-06T10:59:10.162Z,24.50
2022-11-06T11:01:39.357Z,24.30
2022-11-06T11:04:07.259Z,23.90
2022-11-06T11:06:35.138Z,23.70
2022-11-06T11:09:04.045Z,23.30
2022-11-06T11:11:31.894Z,22.70
2022-11-06T11:14:25.025Z,21.90
2022-11-06T11:16:53.359Z,21.10
2022-11-06T11:19:34.991Z,20.40
2022-11-06T11:22:05.023Z,19.90
2022-11-06T11:24:33.207Z,19.30
2022-11-06T11:27:03.558Z,18.90
2022-11-06T11:29:35.206Z,18.70
2022-11-06T11:32:07.008Z,18.70
2022-11-06T11:34:40.632Z,19.10
2022-11-06T11:37:24.734Z,19.40
2022-11-06T11:39:52.685Z,19.40
2022-11-06T11:42:27.425Z,19.40
2022-11-06T11:45:14.275Z,19.60
2022-11-06T11:47:43.534Z,19.60
2022-11-06T11:50:28.122Z,19.80
2022-11-06T11:53:00.862Z,20.30
2022-11-06T11:55:31.590Z,20.90
2022-11-06T11:58:02.154Z,21.40
2022-11-06T12:00:31.702Z,21.90
2022-11-06T12:03:02.638Z,22.50
2022-11-06T12:05:36.051Z,23.00
2022-11-06T12:08:04.727Z,23.60
2022-11-06T12:10:35.390Z,24.10
2022-11-06T12:13:06.064Z,24.20
2022-11-06T12:15:45.141Z,24.20
2022-11-06T12:18:15.798Z,24.30
2022-11-06T12:20:50.663Z,24.50
2022-11-06T12:23:24.830Z,24.40
2022-11-06T12:25:59.339Z,24.50
2022-11-06T12:28:28.573Z,24.40
2022-11-06T12:31:05.490Z,24.20
2022-11-06T12:34:04.531Z,23.90
2022-11-06T12:36:25.708Z,23.50
2022-11-06T12:38:58.130Z,23.20
2022-11-06T12:41:30.451Z,22.80
2022-11-06T12:43:59.923Z,22.70
2022-11-06T12:46:44.498Z,22.30
2022-11-06T12:49:28.999Z,21.90
2022-11-06T12:52:06.490Z,21.40
2022-11-06T12:54:55.266Z,20.90
2022-11-06T12:57:31.045Z,20.40
2022-11-06T13:00:07.005Z,20.00
2022-11-06T13:03:03.199Z,19.60
2022-11-06T13:05:36.350Z,19.10
2022-11-06T13:08:17.810Z,18.60
2022-11-06T13:10:57.350Z,18.20
2022-11-06T13:13:43.032Z,17.70
2022-11-06T13:16:20.083Z,17.20
2022-11-06T13:18:53.862Z,16.60
2022-11-06T13:21:31.928Z,16.10
2022-11-06T13:24:04.219Z,15.70
2022-11-06T13:26:38.068Z,15.30
2022-11-06T13:29:10.552Z,15.00
2022-11-06T13:31:42.385Z,14.70
2022-11-06T13:34:19.626Z,14.50
2022-11-06T13:36:48.138Z,14.40
2022-11-06T13:39:22.784Z,14.20
2022-11-06T13:41:51.944Z,14.10
2022-11-06T13:44:21.313Z,14.00
2022-11-06T13:46:57.247Z,13.80
2022-11-06T13:49:33.022Z,13.70
2022-11-06T13:52:03.050Z,13.50
2022-11-06T13:54:42.465Z,13.40
2022-11-06T13:57:45.474Z,13.30
2022-11-06T14:00:22.038Z,13.20
2022-11-06T14:03:29.246Z,13.10
2022-11-06T14:06:02.395Z,13.00
2022-11-06T14:08:34.039Z,12.80
2022-11-06T14:11:06.596Z,12.70
2022-11-06T14:13:36.704Z,12.50
2022-11-06T14:16:08.168Z,12.40
2022-11-06T14:18:36.548Z,12.20
2022-11-06T14:21:43.783Z,12.10
2022-11-06T14:24:39.371Z,12.00
2022-11-06T14:27:11.681Z,11.90
2022-11-06T14:30:01.704Z,11.90
2022-11-06T14:32:41.549Z,11.80
2022-11-06T14:35:50.521Z,11.70
2022-11-06T14:38:35.208Z,11.60
2022-11-06T14:41:04.036Z,11.50
2022-11-06T14:43:33.531Z,11.40
2022-11-06T14:46:04.477Z,11.40
2022-11-06T14:48:35.042Z,11.30
2022-11-06T14:51:06.224Z,11.20
2022-11-06T14:53:39.687Z,11.20
2022-11-06T14:56:09.822Z,11.10
2022-11-06T14:58:40.238Z,11.00
2022-11-06T15:01:16.181Z,10.90
2022-11-06T15:03:50.943Z,10.80
2022-11-06T15:06:38.477Z,10.80
2022-11-06T15:09:12.355Z,10.70
2022-11-06T15:12:00.893Z,10.70
2022-11-06T15:14:57.402Z,10.60
2022-11-06T15:17:36.228Z,10.60
2022-11-06T15:20:26.459Z,10.50
2022-11-06T15:23:14.790Z,10.50
2022-11-06T15:25:52.436Z,10.50
2022-11-06T15:28:23.713Z,10.50
2022-11-06T15:30:57.222Z,10.40
2022-11-06T15:33:31.979Z,10.40
2022-11-06T15:36:06.384Z,10.30
2022-11-06T15:38:39.792Z,10.30
2022-11-06T15:41:13.578Z,10.30
2022-11-06T15:43:44.488Z,10.30
2022-11-06T15:46:24.457Z,10.20
2022-11-06T15:49:09.113Z,10.20
2022-11-06T15:51:41.069Z,10.20
2022-11-06T15:54:14.494Z,10.20
2022-11-06T15:56:44.940Z,10.10
2022-11-06T15:59:15.700Z,10.10
2022-11-06T16:01:48.654Z,10.10
2022-11-06T16:04:20.979Z,10.00
2022-11-06T16:06:49.086Z,10.00
2022-11-06T16:09:19.984Z,10.00
2022-11-06T16:11:51.693Z,9.90
2022-11-06T16:14:20.921Z,9.90
2022-11-06T16:16:50.433Z,9.90
2022-11-06T16:19:27.358Z,9.90
2022-11-06T16:21:58.615Z,9.90
2022-11-06T16:24:29.707Z,9.90
2022-11-06T16:26:59.370Z,9.80
2022-11-06T16:29:28.838Z,9.80
2022-11-06T16:32:01.934Z,9.80
2022-11-06T16:34:44.038Z,9.80
2022-11-06T16:37:36.715Z,9.80
2022-11-06T16:40:07.022Z,9.80
2022-11-06T16:42:38.714Z,9.80
2022-11-06T16:45:18.615Z,9.80
2022-11-06T16:48:19.705Z,9.80
2022-11-06T16:50:50.317Z,9.70
2022-11-06T16:53:20.760Z,9.80
2022-11-06T16:55:54.814Z,9.80
2022-11-06T16:58:24.776Z,9.80
2022-11-06T17:01:01.462Z,9.80
2022-11-06T17:03:34.934Z,9.80
2022-11-06T17:06:02.912Z,9.80
2022-11-06T17:08:35.985Z,9.80
2022-11-06T17:11:21.582Z,9.80
2022-11-06T17:13:51.744Z,9.80
2022-11-06T17:16:21.534Z,9.80
2022-11-06T17:18:49.816Z,9.80
2022-11-06T17:21:20.126Z,9.80
2022-11-06T17:23:48.814Z,9.80
2022-11-06T17:26:21.491Z,9.80
2022-11-06T17:28:50.956Z,9.90
2022-11-06T17:31:20.461Z,9.80
2022-11-06T17:33:49.386Z,9.80
2022-11-06T17:36:19.485Z,9.80
2022-11-06T17:38:47.959Z,9.90
2022-11-06T17:41:29.550Z,9.90
2022-11-06T17:43:59.683Z,9.90
2022-11-06T17:46:30.496Z,9.90
2022-11-06T17:48:58.672Z,9.90
2022-11-06T17:51:44.722Z,9.90
2022-11-06T17:54:13.107Z,9.90
2022-11-06T17:56:41.375Z,9.90
2022-11-06T17:59:11.489Z,9.90
2022-11-06T18:01:39.508Z,9.80
2022-11-06T18:04:07.961Z,9.80
2022-11-06T18:06:36.036Z,9.80
2022-11-06T18:09:06.660Z,9.80
2022-11-06T18:11:34.799Z,9.80
2022-11-06T18:14:03.216Z,9.80
2022-11-06T18:16:38.478Z,9.80
2022-11-06T18:19:10.016Z,9.70
2022-11-06T18:21:38.302Z,9.70
2022-11-06T18:24:07.180Z,9.70
2022-11-06T18:26:37.169Z,9.70
2022-11-06T18:29:05.692Z,9.70
2022-11-06T18:31:35.157Z,9.70
2022-11-06T18:34:03.701Z,9.70
2022-11-06T18:36:33.158Z,9.70
2022-11-06T18:39:01.001Z,9.70
2022-11-06T18:41:29.803Z,9.70
2022-11-06T18:43:58.390Z,9.70
2022-11-06T18:46:27.719Z,9.60
2022-11-06T18:48:57.820Z,9.70
2022-11-06T18:51:35.038Z,9.60
2022-11-06T18:54:07.052Z,9.60
2022-11-06T18:56:35.960Z,9.60
2022-11-06T18:59:04.429Z,9.60
2022-11-06T19:01:34.501Z,9.60
2022-11-06T19:04:04.700Z,9.60
2022-11-06T19:06:33.381Z,9.60
2022-11-06T19:09:01.277Z,9.60
2022-11-06T19:11:29.137Z,9.60
2022-11-06T19:13:57.009Z,9.60
2022-11-06T19:16:24.845Z,9.60
2022-11-06T19:21:31.410Z,9.60
2022-11-06T19:24:04.037Z,9.60
2022-11-06T19:26:33.416Z,9.60
2022-11-06T19:29:01.699Z,9.60
2022-11-06T19:31:30.506Z,9.70
2022-11-06T19:33:59.170Z,9.70
2022-11-06T19:36:27.348Z,9.70
2022-11-06T19:38:58.627Z,9.70
2022-11-06T19:41:27.162Z,9.70
2022-11-06T19:43:55.480Z,9.70
2022-11-06T19:46:27.160Z,9.70
2022-11-06T19:48:57.526Z,9.70
2022-11-06T19:51:25.818Z,9.70
2022-11-06T19:53:54.043Z,9.70
2022-11-06T19:56:24.247Z,9.70
2022-11-06T19:58:53.046Z,9.70
2022-11-06T20:01:22.008Z,9.80
2022-11-06T20:03:50.011Z,9.80
2022-11-06T20:06:18.600Z,9.80
2022-11-06T20:08:48.891Z,9.80
2022-11-06T20:11:17.118Z,9.80
2022-11-06T20:13:47.102Z,9.80
2022-11-06T20:16:16.370Z,9.80
2022-11-06T20:18:44.880Z,9.80
2022-11-06T20:21:13.490Z,9.80
2022-11-06T20:23:41.397Z,9.80
2022-11-06T20:26:09.785Z,9.80
2022-11-06T20:28:37.918Z,9.90
2022-11-06T20:31:08.168Z,9.90
2022-11-06T20:33:36.983Z,10.00
2022-11-06T20:36:15.864Z,10.10
2022-11-06T20:38:44.670Z,10.10
2022-11-06T20:41:13.178Z,10.10
2022-11-06T20:43:41.192Z,10.20
2022-11-06T20:46:11.255Z,10.20
2022-11-06T20:48:39.530Z,10.20
2022-11-06T20:51:09.511Z,10.20
2022-11-06T20:53:37.490Z,10.20
2022-11-06T20:56:07.443Z,10.20
2022-11-06T20:58:36.141Z,10.20
2022-11-06T21:01:05.436Z,10.30
2022-11-06T21:03:35.453Z,10.30
2022-11-06T21:06:04.462Z,10.30
2022-11-06T21:08:33.821Z,10.30
2022-11-06T21:11:06.433Z,10.30
2022-11-06T21:13:35.454Z,10.30
2022-11-06T21:16:05.575Z,10.30
2022-11-06T21:18:36.387Z,10.30
2022-11-06T21:21:05.887Z,10.30
2022-11-06T21:23:34.818Z,10.30
2022-11-06T21:26:06.039Z,10.40
2022-11-06T21:28:34.541Z,10.30
2022-11-06T21:31:02.401Z,10.40
2022-11-06T21:33:30.282Z,10.40
2022-11-06T21:36:07.626Z,10.40
2022-11-06T21:38:35.574Z,10.40
2022-11-06T21:41:07.508Z,10.40
2022-11-06T21:43:35.724Z,10.40
2022-11-06T21:46:03.975Z,10.50
2022-11-06T21:48:45.831Z,10.40
2022-11-06T21:51:17.037Z,10.50
2022-11-06T21:54:02.199Z,10.40
2022-11-06T21:56:30.238Z,10.50
2022-11-06T21:59:00.127Z,10.50
2022-11-06T22:01:29.285Z,10.50
2022-11-06T22:03:57.427Z,10.40
2022-11-06T22:06:28.561Z,10.40
2022-11-06T22:08:57.752Z,10.40
2022-11-06T22:11:28.094Z,10.40
2022-11-06T22:13:57.521Z,10.40
2022-11-06T22:16:28.371Z,10.40
2022-11-06T22:18:56.496Z,10.30
2022-11-06T22:21:27.853Z,10.30
2022-11-06T22:23:56.466Z,10.30
2022-11-06T22:26:26.543Z,10.40
2022-11-06T22:28:55.516Z,10.40
2022-11-06T22:31:23.838Z,10.30
2022-11-06T22:33:54.124Z,10.30
2022-11-06T22:36:23.325Z,10.30
2022-11-06T22:38:53.191Z,10.30
2022-11-06T22:41:23.527Z,10.30
2022-11-06T22:43:51.837Z,10.30
2022-11-06T22:46:22.014Z,10.30
2022-11-06T22:48:50.954Z,10.30
2022-11-06T22:51:21.618Z,10.30
2022-11-06T22:53:50.236Z,10.30
2022-11-06T22:56:19.753Z,10.30
2022-11-06T22:58:47.758Z,10.30
2022-11-06T23:01:15.750Z,10.30
2022-11-06T23:03:43.617Z,10.30
2022-11-06T23:06:11.482Z,10.30
2022-11-06T23:08:45.577Z,10.30
2022-11-06T23:11:15.755Z,10.40
2022-11-06T23:13:45.573Z,10.40
2022-11-06T23:16:15.313Z,10.30
2022-11-06T23:18:43.691Z,10.40
2022-11-06T23:21:16.023Z,10.30
2022-11-06T23:23:45.174Z,10.30
2022-11-06T23:26:14.246Z,10.30
2022-11-06T23:28:44.223Z,10.30
2022-11-06T23:31:14.854Z,10.30
2022-11-06T23:33:43.234Z,10.40
2022-11-06T23:36:13.797Z,10.30
2022-11-06T23:38:42.778Z,10.40
2022-11-06T23:41:26.349Z,10.30
2022-11-06T23:43:55.934Z,10.30
2022-11-06T23:46:24.903Z,10.30
2022-11-06T23:48:52.980Z,10.40
2022-11-06T23:51:21.228Z,10.40
2022-11-06T23:53:49.123Z,10.40
2022-11-06T23:56:17.910Z,10.40
2022-11-06T23:58:46.779Z,10.40
